sensor_id;sensor_type;location;lat;lon;timestamp;pressure;altitude;pressure_sealevel;temperature;humidity
11678;BME280;5895;41.950;24.372;2024-02-04T00:01:58;86956.41;;;-0.40;80.86
11678;BME280;5895;41.950;24.372;2024-02-04T00:04:25;86963.13;;;-0.47;80.27
11678;BME280;5895;41.950;24.372;2024-02-04T00:06:52;86975.88;;;-0.56;80.06
11678;BME280;5895;41.950;24.372;2024-02-04T00:09:19;86976.66;;;-0.63;78.76
11678;BME280;5895;41.950;24.372;2024-02-04T00:11:48;86979.06;;;-0.70;79.70
11678;BME280;5895;41.950;24.372;2024-02-04T00:14:15;86972.69;;;-0.74;79.40
11678;BME280;5895;41.950;24.372;2024-02-04T00:16:42;86973.63;;;-0.75;79.49
11678;BME280;5895;41.950;24.372;2024-02-04T00:19:11;86976.53;;;-0.78;79.68
11678;BME280;5895;41.950;24.372;2024-02-04T00:21:38;86981.91;;;-0.81;79.91
11678;BME280;5895;41.950;24.372;2024-02-04T00:24:05;86978.75;;;-0.83;80.62
11678;BME280;5895;41.950;24.372;2024-02-04T00:26:32;86967.28;;;-0.87;80.56
11678;BME280;5895;41.950;24.372;2024-02-04T00:28:59;86974.13;;;-0.88;80.20
11678;BME280;5895;41.950;24.372;2024-02-04T00:31:26;86973.50;;;-0.90;80.43
11678;BME280;5895;41.950;24.372;2024-02-04T00:33:53;86976.19;;;-0.91;81.08
11678;BME280;5895;41.950;24.372;2024-02-04T00:36:22;86973.50;;;-0.90;80.95
11678;BME280;5895;41.950;24.372;2024-02-04T00:38:49;86974.72;;;-1.02;80.28
11678;BME280;5895;41.950;24.372;2024-02-04T00:41:16;86982.53;;;-1.03;80.79
11678;BME280;5895;41.950;24.372;2024-02-04T00:43:43;86979.50;;;-1.07;81.49
11678;BME280;5895;41.950;24.372;2024-02-04T00:46:10;86972.69;;;-1.07;81.71
11678;BME280;5895;41.950;24.372;2024-02-04T00:48:37;86981.09;;;-1.14;81.63
11678;BME280;5895;41.950;24.372;2024-02-04T00:51:06;86974.72;;;-1.18;82.33
11678;BME280;5895;41.950;24.372;2024-02-04T00:53:34;86966.59;;;-1.14;82.25
11678;BME280;5895;41.950;24.372;2024-02-04T00:56:03;86975.19;;;-1.15;81.68
11678;BME280;5895;41.950;24.372;2024-02-04T00:58:30;86974.56;;;-1.17;82.60
11678;BME280;5895;41.950;24.372;2024-02-04T01:00:57;86971.53;;;-1.20;81.03
11678;BME280;5895;41.950;24.372;2024-02-04T01:03:24;86978.53;;;-1.22;81.88
11678;BME280;5895;41.950;24.372;2024-02-04T01:05:51;86979.47;;;-1.31;80.32
11678;BME280;5895;41.950;24.372;2024-02-04T01:08:18;86973.41;;;-1.30;81.17
11678;BME280;5895;41.950;24.372;2024-02-04T01:10:47;86973.88;;;-1.35;81.03
11678;BME280;5895;41.950;24.372;2024-02-04T01:13:16;86969.63;;;-1.35;80.67
11678;BME280;5895;41.950;24.372;2024-02-04T01:15:43;86971.34;;;-1.35;81.39
11678;BME280;5895;41.950;24.372;2024-02-04T01:18:10;86972.16;;;-1.35;81.08
11678;BME280;5895;41.950;24.372;2024-02-04T01:20:37;86979.94;;;-1.36;81.74
11678;BME280;5895;41.950;24.372;2024-02-04T01:23:04;86987.22;;;-1.41;81.13
11678;BME280;5895;41.950;24.372;2024-02-04T01:25:31;86987.56;;;-1.44;80.49
11678;BME280;5895;41.950;24.372;2024-02-04T01:28:00;86986.09;;;-1.47;80.43
11678;BME280;5895;41.950;24.372;2024-02-04T01:30:27;86980.69;;;-1.52;80.11
11678;BME280;5895;41.950;24.372;2024-02-04T01:32:56;86976.38;;;-1.60;79.65
11678;BME280;5895;41.950;24.372;2024-02-04T01:35:23;86976.38;;;-1.60;79.46
11678;BME280;5895;41.950;24.372;2024-02-04T01:37:50;86971.91;;;-1.57;79.94
11678;BME280;5895;41.950;24.372;2024-02-04T01:40:17;86966.19;;;-1.60;80.69
11678;BME280;5895;41.950;24.372;2024-02-04T01:42:44;86972.88;;;-1.58;80.93
11678;BME280;5895;41.950;24.372;2024-02-04T01:45:13;86965.91;;;-1.56;81.34
11678;BME280;5895;41.950;24.372;2024-02-04T01:47:40;86962.41;;;-1.55;80.99
11678;BME280;5895;41.950;24.372;2024-02-04T01:50:07;86970.66;;;-1.53;81.26
11678;BME280;5895;41.950;24.372;2024-02-04T01:52:37;86962.09;;;-1.52;81.59
11678;BME280;5895;41.950;24.372;2024-02-04T01:55:05;86963.03;;;-1.53;81.08
11678;BME280;5895;41.950;24.372;2024-02-04T01:57:32;86962.41;;;-1.55;80.98
11678;BME280;5895;41.950;24.372;2024-02-04T02:00:00;86962.41;;;-1.55;81.65
11678;BME280;5895;41.950;24.372;2024-02-04T02:02:30;86959.19;;;-1.57;81.99
11678;BME280;5895;41.950;24.372;2024-02-04T02:04:57;86951.56;;;-1.57;82.04
11678;BME280;5895;41.950;24.372;2024-02-04T02:07:24;86952.84;;;-1.62;82.88
11678;BME280;5895;41.950;24.372;2024-02-04T02:09:53;86947.91;;;-1.63;82.04
11678;BME280;5895;41.950;24.372;2024-02-04T02:12:24;86950.28;;;-1.70;81.23
11678;BME280;5895;41.950;24.372;2024-02-04T02:14:57;86954.88;;;-1.73;80.68
11678;BME280;5895;41.950;24.372;2024-02-04T02:17:33;86953.09;;;-1.81;81.38
11678;BME280;5895;41.950;24.372;2024-02-04T02:20:06;86951.84;;;-1.85;81.07
11678;BME280;5895;41.950;24.372;2024-02-04T02:22:42;86959.91;;;-1.90;81.81
11678;BME280;5895;41.950;24.372;2024-02-04T02:25:14;86953.53;;;-1.94;81.41
11678;BME280;5895;41.950;24.372;2024-02-04T02:27:48;86961.31;;;-1.95;81.59
11678;BME280;5895;41.950;24.372;2024-02-04T02:30:16;86960.97;;;-2.00;80.66
11678;BME280;5895;41.950;24.372;2024-02-04T02:32:43;86959.25;;;-1.92;83.37
11678;BME280;5895;41.950;24.372;2024-02-04T02:35:11;86961.72;;;-1.74;85.25
11678;BME280;5895;41.950;24.372;2024-02-04T02:37:43;86947.78;;;-1.53;87.31
11678;BME280;5895;41.950;24.372;2024-02-04T02:40:18;86949.44;;;-1.28;88.81
11678;BME280;5895;41.950;24.372;2024-02-04T02:42:49;86943.06;;;-1.08;86.51
11678;BME280;5895;41.950;24.372;2024-02-04T02:45:20;86944.03;;;-0.92;85.05
11678;BME280;5895;41.950;24.372;2024-02-04T02:47:49;86941.47;;;-0.76;85.40
11678;BME280;5895;41.950;24.372;2024-02-04T02:50:17;86939.06;;;-0.53;86.79
11678;BME280;5895;41.950;24.372;2024-02-04T02:52:43;86932.81;;;-0.34;86.89
11678;BME280;5895;41.950;24.372;2024-02-04T02:55:10;86926.72;;;-0.09;88.64
11678;BME280;5895;41.950;24.372;2024-02-04T02:57:39;86929.50;;;0.13;89.06
11678;BME280;5895;41.950;24.372;2024-02-04T03:00:08;86919.19;;;0.37;88.12
11678;BME280;5895;41.950;24.372;2024-02-04T03:02:35;86914.47;;;0.57;88.75
11678;BME280;5895;41.950;24.372;2024-02-04T03:05:02;86921.22;;;0.73;88.27
11678;BME280;5895;41.950;24.372;2024-02-04T03:07:29;86923.06;;;0.87;87.45
11678;BME280;5895;41.950;24.372;2024-02-04T03:09:56;86918.19;;;1.00;86.91
11678;BME280;5895;41.950;24.372;2024-02-04T03:12:23;86928.97;;;1.11;86.18
11678;BME280;5895;41.950;24.372;2024-02-04T03:14:52;86916.47;;;1.16;85.01
11678;BME280;5895;41.950;24.372;2024-02-04T03:17:19;86919.94;;;1.23;86.29
11678;BME280;5895;41.950;24.372;2024-02-04T03:19:46;86917.75;;;1.35;87.22
11678;BME280;5895;41.950;24.372;2024-02-04T03:22:14;86912.25;;;1.46;84.72
11678;BME280;5895;41.950;24.372;2024-02-04T03:24:41;86910.75;;;1.51;84.22
11678;BME280;5895;41.950;24.372;2024-02-04T03:27:08;86914.84;;;1.61;85.53
11678;BME280;5895;41.950;24.372;2024-02-04T03:29:35;86910.28;;;1.71;84.54
11678;BME280;5895;41.950;24.372;2024-02-04T03:32:04;86911.16;;;1.78;84.76
11678;BME280;5895;41.950;24.372;2024-02-04T03:34:31;86917.34;;;1.83;84.25
11678;BME280;5895;41.950;24.372;2024-02-04T03:36:59;86918.06;;;1.92;84.48
11678;BME280;5895;41.950;24.372;2024-02-04T03:39:26;86907.53;;;2.02;84.76
11678;BME280;5895;41.950;24.372;2024-02-04T03:41:53;86903.50;;;2.07;84.71
11678;BME280;5895;41.950;24.372;2024-02-04T03:44:20;86895.22;;;2.20;84.79
11678;BME280;5895;41.950;24.372;2024-02-04T03:46:48;86881.88;;;2.25;84.28
11678;BME280;5895;41.950;24.372;2024-02-04T03:49:17;86896.34;;;2.32;83.14
11678;BME280;5895;41.950;24.372;2024-02-04T03:51:44;86886.56;;;2.36;83.53
11678;BME280;5895;41.950;24.372;2024-02-04T03:54:11;86904.53;;;2.43;83.10
11678;BME280;5895;41.950;24.372;2024-02-04T03:56:38;86906.56;;;2.47;82.24
11678;BME280;5895;41.950;24.372;2024-02-04T03:59:07;86912.31;;;2.49;83.22
11678;BME280;5895;41.950;24.372;2024-02-04T04:01:36;86910.00;;;2.54;82.13
11678;BME280;5895;41.950;24.372;2024-02-04T04:04:03;86902.75;;;2.58;82.66
11678;BME280;5895;41.950;24.372;2024-02-04T04:06:32;86898.06;;;2.61;82.15
11678;BME280;5895;41.950;24.372;2024-02-04T04:08:59;86891.97;;;2.62;81.74
11678;BME280;5895;41.950;24.372;2024-02-04T04:11:26;86899.28;;;2.65;81.02
11678;BME280;5895;41.950;24.372;2024-02-04T04:13:53;86892.22;;;2.68;81.62
11678;BME280;5895;41.950;24.372;2024-02-04T04:16:21;86892.84;;;2.70;81.42
11678;BME280;5895;41.950;24.372;2024-02-04T04:18:48;86887.59;;;2.78;82.57
11678;BME280;5895;41.950;24.372;2024-02-04T04:21:16;86892.97;;;2.83;81.17
11678;BME280;5895;41.950;24.372;2024-02-04T04:23:45;86892.00;;;2.84;81.05
11678;BME280;5895;41.950;24.372;2024-02-04T04:26:12;86881.75;;;2.84;80.56
11678;BME280;5895;41.950;24.372;2024-02-04T04:28:39;86881.56;;;2.85;80.98
11678;BME280;5895;41.950;24.372;2024-02-04T04:31:06;86872.72;;;2.88;80.83
11678;BME280;5895;41.950;24.372;2024-02-04T04:33:33;86880.69;;;2.93;80.03
11678;BME280;5895;41.950;24.372;2024-02-04T04:36:00;86881.88;;;2.97;80.26
11678;BME280;5895;41.950;24.372;2024-02-04T04:38:27;86865.34;;;3.00;79.89
11678;BME280;5895;41.950;24.372;2024-02-04T04:40:56;86858.94;;;3.10;80.16
11678;BME280;5895;41.950;24.372;2024-02-04T04:43:23;86871.63;;;3.18;79.03
11678;BME280;5895;41.950;24.372;2024-02-04T04:45:52;86880.56;;;3.23;79.42
11678;BME280;5895;41.950;24.372;2024-02-04T04:48:19;86871.94;;;3.30;79.35
11678;BME280;5895;41.950;24.372;2024-02-04T04:50:46;86863.69;;;3.35;78.79
11678;BME280;5895;41.950;24.372;2024-02-04T04:53:13;86880.75;;;3.42;78.35
11678;BME280;5895;41.950;24.372;2024-02-04T04:55:40;86872.47;;;3.47;77.59
11678;BME280;5895;41.950;24.372;2024-02-04T04:58:08;86874.28;;;3.53;77.95
11678;BME280;5895;41.950;24.372;2024-02-04T05:00:35;86869.41;;;3.58;77.34
11678;BME280;5895;41.950;24.372;2024-02-04T05:03:03;86865.28;;;3.64;76.76
11678;BME280;5895;41.950;24.372;2024-02-04T05:05:30;86863.94;;;3.68;75.83
11678;BME280;5895;41.950;24.372;2024-02-04T05:07:57;86877.81;;;3.74;75.76
11678;BME280;5895;41.950;24.372;2024-02-04T05:10:24;86879.03;;;3.78;75.73
11678;BME280;5895;41.950;24.372;2024-02-04T05:12:51;86874.31;;;3.81;75.16
11678;BME280;5895;41.950;24.372;2024-02-04T05:15:20;86864.84;;;3.82;75.49
11678;BME280;5895;41.950;24.372;2024-02-04T05:17:47;86866.03;;;3.86;75.25
11678;BME280;5895;41.950;24.372;2024-02-04T05:20:15;86872.41;;;3.90;75.15
11678;BME280;5895;41.950;24.372;2024-02-04T05:22:42;86878.75;;;3.94;75.03
11678;BME280;5895;41.950;24.372;2024-02-04T05:25:09;86876.97;;;3.94;74.73
11678;BME280;5895;41.950;24.372;2024-02-04T05:27:36;86878.34;;;3.97;74.64
11678;BME280;5895;41.950;24.372;2024-02-04T05:30:04;86881.91;;;3.96;74.58
11678;BME280;5895;41.950;24.372;2024-02-04T05:32:33;86902.09;;;3.99;74.89
11678;BME280;5895;41.950;24.372;2024-02-04T05:35:00;86913.09;;;3.93;75.26
11678;BME280;5895;41.950;24.372;2024-02-04T05:37:27;86906.88;;;3.81;76.01
11678;BME280;5895;41.950;24.372;2024-02-04T05:39:54;86910.13;;;3.68;76.65
11678;BME280;5895;41.950;24.372;2024-02-04T05:42:21;86906.91;;;3.59;77.03
11678;BME280;5895;41.950;24.372;2024-02-04T05:44:48;86918.28;;;3.50;77.71
11678;BME280;5895;41.950;24.372;2024-02-04T05:47:15;86930.59;;;3.40;78.33
11678;BME280;5895;41.950;24.372;2024-02-04T05:49:44;86919.50;;;3.33;78.66
11678;BME280;5895;41.950;24.372;2024-02-04T05:52:12;86929.88;;;3.25;79.73
11678;BME280;5895;41.950;24.372;2024-02-04T05:54:39;86927.94;;;3.27;79.76
11678;BME280;5895;41.950;24.372;2024-02-04T05:57:06;86920.25;;;3.27;79.82
11678;BME280;5895;41.950;24.372;2024-02-04T05:59:33;86925.97;;;3.29;80.41
11678;BME280;5895;41.950;24.372;2024-02-04T06:02:00;86925.63;;;3.32;80.20
11678;BME280;5895;41.950;24.372;2024-02-04T06:04:28;86928.19;;;3.32;80.39
11678;BME280;5895;41.950;24.372;2024-02-04T06:06:57;86925.63;;;3.32;80.62
11678;BME280;5895;41.950;24.372;2024-02-04T06:09:24;86913.75;;;3.31;80.97
11678;BME280;5895;41.950;24.372;2024-02-04T06:11:51;86916.31;;;3.31;80.83
11678;BME280;5895;41.950;24.372;2024-02-04T06:14:18;86915.34;;;3.32;80.50
11678;BME280;5895;41.950;24.372;2024-02-04T06:16:45;86920.09;;;3.35;81.12
11678;BME280;5895;41.950;24.372;2024-02-04T06:19:12;86914.97;;;3.35;80.37
11678;BME280;5895;41.950;24.372;2024-02-04T06:21:40;86920.09;;;3.35;81.50
11678;BME280;5895;41.950;24.372;2024-02-04T06:24:09;86922.47;;;3.36;81.68
11678;BME280;5895;41.950;24.372;2024-02-04T06:26:38;86916.56;;;3.36;82.98
11678;BME280;5895;41.950;24.372;2024-02-04T06:29:05;86912.41;;;3.35;80.98
11678;BME280;5895;41.950;24.372;2024-02-04T06:31:32;86909.84;;;3.35;81.09
11678;BME280;5895;41.950;24.372;2024-02-04T06:33:59;86913.41;;;3.34;81.91
11678;BME280;5895;41.950;24.372;2024-02-04T06:36:27;86912.59;;;3.33;81.69
11678;BME280;5895;41.950;24.372;2024-02-04T06:38:54;86907.47;;;3.33;81.75
11678;BME280;5895;41.950;24.372;2024-02-04T06:41:22;86908.88;;;3.36;82.33
11678;BME280;5895;41.950;24.372;2024-02-04T06:43:49;86907.09;;;3.36;81.72
11678;BME280;5895;41.950;24.372;2024-02-04T06:46:24;86907.53;;;3.40;84.67
11678;BME280;5895;41.950;24.372;2024-02-04T06:48:51;86907.97;;;3.43;82.10
11678;BME280;5895;41.950;24.372;2024-02-04T06:51:19;86902.88;;;3.50;81.62
11678;BME280;5895;41.950;24.372;2024-02-04T06:53:46;86911.44;;;3.57;81.11
11678;BME280;5895;41.950;24.372;2024-02-04T06:56:13;86913.63;;;3.60;80.57
11678;BME280;5895;41.950;24.372;2024-02-04T06:58:42;86917.41;;;3.64;80.79
11678;BME280;5895;41.950;24.372;2024-02-04T07:01:10;86920.41;;;3.68;80.64
11678;BME280;5895;41.950;24.372;2024-02-04T07:03:38;86926.31;;;3.68;81.13
11678;BME280;5895;41.950;24.372;2024-02-04T07:06:06;86924.53;;;3.69;80.59
11678;BME280;5895;41.950;24.372;2024-02-04T07:08:33;86931.25;;;3.70;81.07
11678;BME280;5895;41.950;24.372;2024-02-04T07:11:00;86931.09;;;3.71;80.81
11678;BME280;5895;41.950;24.372;2024-02-04T07:13:27;86946.28;;;3.73;81.57
11678;BME280;5895;41.950;24.372;2024-02-04T07:15:56;86946.09;;;3.75;81.41
11678;BME280;5895;41.950;24.372;2024-02-04T07:18:23;86943.19;;;3.78;81.35
11678;BME280;5895;41.950;24.372;2024-02-04T07:20:50;86936.06;;;3.80;80.66
11678;BME280;5895;41.950;24.372;2024-02-04T07:23:17;86942.63;;;3.82;80.61
11678;BME280;5895;41.950;24.372;2024-02-04T07:25:44;86953.31;;;3.86;80.91
11678;BME280;5895;41.950;24.372;2024-02-04T07:28:11;86953.94;;;3.88;80.51
11678;BME280;5895;41.950;24.372;2024-02-04T07:30:39;86959.66;;;3.90;80.82
11678;BME280;5895;41.950;24.372;2024-02-04T07:33:07;86951.75;;;3.91;81.38
11678;BME280;5895;41.950;24.372;2024-02-04T07:35:34;86947.25;;;3.93;80.45
11678;BME280;5895;41.950;24.372;2024-02-04T07:38:02;86958.56;;;3.99;79.71
11678;BME280;5895;41.950;24.372;2024-02-04T07:40:29;86956.59;;;4.01;79.97
11678;BME280;5895;41.950;24.372;2024-02-04T07:42:57;86944.81;;;4.13;78.96
11678;BME280;5895;41.950;24.372;2024-02-04T07:45:24;86952.00;;;4.24;79.17
11678;BME280;5895;41.950;24.372;2024-02-04T07:47:51;86951.88;;;4.33;77.78
11678;BME280;5895;41.950;24.372;2024-02-04T07:50:19;86947.38;;;4.41;77.23
11678;BME280;5895;41.950;24.372;2024-02-04T07:52:46;86927.25;;;4.45;77.32
11678;BME280;5895;41.950;24.372;2024-02-04T07:55:13;86928.84;;;4.46;77.13
11678;BME280;5895;41.950;24.372;2024-02-04T07:57:40;86947.84;;;4.51;76.51
11678;BME280;5895;41.950;24.372;2024-02-04T08:00:08;86936.00;;;4.57;75.92
11678;BME280;5895;41.950;24.372;2024-02-04T08:02:36;86933.66;;;4.62;75.56
11678;BME280;5895;41.950;24.372;2024-02-04T08:05:04;86926.97;;;4.68;75.27
11678;BME280;5895;41.950;24.372;2024-02-04T08:07:32;86932.94;;;4.75;75.04
11678;BME280;5895;41.950;24.372;2024-02-04T08:09:59;86927.59;;;4.76;75.08
11678;BME280;5895;41.950;24.372;2024-02-04T08:12:26;86928.56;;;4.75;74.90
11678;BME280;5895;41.950;24.372;2024-02-04T08:14:53;86928.56;;;4.75;74.84
11678;BME280;5895;41.950;24.372;2024-02-04T08:17:20;86925.63;;;4.78;74.75
11678;BME280;5895;41.950;24.372;2024-02-04T08:19:47;86917.16;;;4.85;74.18
11678;BME280;5895;41.950;24.372;2024-02-04T08:22:15;86921.53;;;4.91;74.16
11678;BME280;5895;41.950;24.372;2024-02-04T08:24:44;86929.66;;;4.94;73.88
11678;BME280;5895;41.950;24.372;2024-02-04T08:27:12;86932.63;;;4.98;73.76
11678;BME280;5895;41.950;24.372;2024-02-04T08:29:41;86919.97;;;4.96;73.83
11678;BME280;5895;41.950;24.372;2024-02-04T08:32:08;86930.06;;;4.98;73.52
11678;BME280;5895;41.950;24.372;2024-02-04T08:34:35;86940.19;;;5.06;73.81
11678;BME280;5895;41.950;24.372;2024-02-04T08:37:03;86937.44;;;5.14;73.47
11678;BME280;5895;41.950;24.372;2024-02-04T08:39:30;86939.84;;;5.22;72.79
11678;BME280;5895;41.950;24.372;2024-02-04T08:41:58;86937.47;;;5.27;72.63
11678;BME280;5895;41.950;24.372;2024-02-04T08:44:25;86946.59;;;5.30;72.29
11678;BME280;5895;41.950;24.372;2024-02-04T08:46:52;86947.38;;;5.30;72.46
11678;BME280;5895;41.950;24.372;2024-02-04T08:49:21;86952.53;;;5.30;72.06
11678;BME280;5895;41.950;24.372;2024-02-04T08:51:48;86945.41;;;5.32;72.46
11678;BME280;5895;41.950;24.372;2024-02-04T08:54:15;86937.09;;;5.37;72.42
11678;BME280;5895;41.950;24.372;2024-02-04T08:56:43;86951.75;;;5.43;71.94
11678;BME280;5895;41.950;24.372;2024-02-04T08:59:11;86944.66;;;5.45;72.51
11678;BME280;5895;41.950;24.372;2024-02-04T09:01:38;86938.72;;;5.45;72.26
11678;BME280;5895;41.950;24.372;2024-02-04T09:04:05;86940.69;;;5.49;72.47
11678;BME280;5895;41.950;24.372;2024-02-04T09:06:32;86943.88;;;5.51;72.60
11678;BME280;5895;41.950;24.372;2024-02-04T09:08:59;86941.09;;;5.53;72.43
11678;BME280;5895;41.950;24.372;2024-02-04T09:11:26;86949.81;;;5.58;72.56
11678;BME280;5895;41.950;24.372;2024-02-04T09:13:53;86946.28;;;5.66;72.43
11678;BME280;5895;41.950;24.372;2024-02-04T09:16:21;86939.75;;;5.77;72.69
11678;BME280;5895;41.950;24.372;2024-02-04T09:18:48;86938.03;;;6.04;71.15
11678;BME280;5895;41.950;24.372;2024-02-04T09:21:16;86914.66;;;6.25;70.62
11678;BME280;5895;41.950;24.372;2024-02-04T09:23:43;86927.31;;;6.47;69.60
11678;BME280;5895;41.950;24.372;2024-02-04T09:26:10;86937.41;;;6.55;68.94
11678;BME280;5895;41.950;24.372;2024-02-04T09:28:37;86938.00;;;6.57;69.47
11678;BME280;5895;41.950;24.372;2024-02-04T09:31:07;86931.66;;;6.53;69.48
11678;BME280;5895;41.950;24.372;2024-02-04T09:33:35;86940.78;;;6.49;70.11
11678;BME280;5895;41.950;24.372;2024-02-04T09:36:04;86934.44;;;6.45;69.99
11678;BME280;5895;41.950;24.372;2024-02-04T09:38:31;86938.63;;;6.46;70.24
11678;BME280;5895;41.950;24.372;2024-02-04T09:40:58;86931.25;;;6.56;70.26
11678;BME280;5895;41.950;24.372;2024-02-04T09:43:26;86931.03;;;6.71;69.34
11678;BME280;5895;41.950;24.372;2024-02-04T09:45:53;86928.84;;;6.74;70.01
11678;BME280;5895;41.950;24.372;2024-02-04T09:48:20;86931.25;;;6.69;70.18
11678;BME280;5895;41.950;24.372;2024-02-04T09:50:51;86913.19;;;6.56;70.35
11678;BME280;5895;41.950;24.372;2024-02-04T09:53:21;86926.94;;;6.36;71.20
11678;BME280;5895;41.950;24.372;2024-02-04T09:55:52;86924.34;;;6.30;71.39
11678;BME280;5895;41.950;24.372;2024-02-04T09:58:21;86897.97;;;6.41;70.93
11678;BME280;5895;41.950;24.372;2024-02-04T10:00:48;86907.25;;;6.55;70.09
11678;BME280;5895;41.950;24.372;2024-02-04T10:03:17;86899.50;;;6.69;69.39
11678;BME280;5895;41.950;24.372;2024-02-04T10:05:44;86914.72;;;6.83;69.14
11678;BME280;5895;41.950;24.372;2024-02-04T10:08:14;86910.34;;;6.97;69.51
11678;BME280;5895;41.950;24.372;2024-02-04T10:10:41;86913.25;;;7.14;68.23
11678;BME280;5895;41.950;24.372;2024-02-04T10:13:09;86922.66;;;7.47;67.97
11678;BME280;5895;41.950;24.372;2024-02-04T10:15:36;86910.28;;;7.55;67.28
11678;BME280;5895;41.950;24.372;2024-02-04T10:18:04;86915.81;;;7.59;66.94
11678;BME280;5895;41.950;24.372;2024-02-04T10:20:31;86917.66;;;7.83;66.30
11678;BME280;5895;41.950;24.372;2024-02-04T10:22:59;86905.06;;;7.93;66.16
11678;BME280;5895;41.950;24.372;2024-02-04T10:25:27;86911.59;;;8.03;65.86
11678;BME280;5895;41.950;24.372;2024-02-04T10:27:54;86932.09;;;8.22;65.89
11678;BME280;5895;41.950;24.372;2024-02-04T10:30:22;86925.13;;;8.23;65.93
11678;BME280;5895;41.950;24.372;2024-02-04T10:32:50;86934.72;;;8.16;66.02
11678;BME280;5895;41.950;24.372;2024-02-04T10:35:19;86938.94;;;8.10;65.68
11678;BME280;5895;41.950;24.372;2024-02-04T10:37:48;86946.94;;;8.02;66.95
11678;BME280;5895;41.950;24.372;2024-02-04T10:40:15;86935.66;;;7.96;67.38
11678;BME280;5895;41.950;24.372;2024-02-04T10:42:44;86938.88;;;7.92;66.74
11678;BME280;5895;41.950;24.372;2024-02-04T10:45:12;86934.31;;;7.87;66.84
11678;BME280;5895;41.950;24.372;2024-02-04T10:47:43;86926.41;;;7.82;66.95
11678;BME280;5895;41.950;24.372;2024-02-04T10:50:14;86930.41;;;7.78;67.02
11678;BME280;5895;41.950;24.372;2024-02-04T10:52:46;86931.97;;;7.79;66.81
11678;BME280;5895;41.950;24.372;2024-02-04T10:55:17;86940.31;;;7.81;66.91
11678;BME280;5895;41.950;24.372;2024-02-04T10:57:49;86947.19;;;8.26;66.87
11678;BME280;5895;41.950;24.372;2024-02-04T11:00:17;86953.19;;;8.76;65.34
11678;BME280;5895;41.950;24.372;2024-02-04T11:02:46;86944.88;;;9.11;63.77
11678;BME280;5895;41.950;24.372;2024-02-04T11:05:15;86949.75;;;9.19;62.69
11678;BME280;5895;41.950;24.372;2024-02-04T11:07:44;86949.19;;;8.98;64.50
11678;BME280;5895;41.950;24.372;2024-02-04T11:10:11;86941.81;;;8.77;64.91
11678;BME280;5895;41.950;24.372;2024-02-04T11:12:41;86946.97;;;8.59;65.31
11678;BME280;5895;41.950;24.372;2024-02-04T11:15:12;86944.63;;;8.51;64.52
11678;BME280;5895;41.950;24.372;2024-02-04T11:18:15;86957.47;;;8.32;65.14
11678;BME280;5895;41.950;24.372;2024-02-04T11:21:08;86938.28;;;8.21;65.42
11678;BME280;5895;41.950;24.372;2024-02-04T11:23:50;86953.53;;;7.98;67.17
11678;BME280;5895;41.950;24.372;2024-02-04T11:26:22;86955.97;;;7.93;67.54
11678;BME280;5895;41.950;24.372;2024-02-04T11:28:51;86952.25;;;7.82;67.88
11678;BME280;5895;41.950;24.372;2024-02-04T11:31:19;86946.72;;;7.72;67.78
11678;BME280;5895;41.950;24.372;2024-02-04T11:33:47;86950.78;;;7.55;68.63
11678;BME280;5895;41.950;24.372;2024-02-04T11:36:17;86945.28;;;7.45;68.98
11678;BME280;5895;41.950;24.372;2024-02-04T11:38:48;86942.53;;;7.33;69.20
11678;BME280;5895;41.950;24.372;2024-02-04T11:41:21;86945.72;;;7.28;70.08
11678;BME280;5895;41.950;24.372;2024-02-04T11:43:52;86946.56;;;7.22;69.91
11678;BME280;5895;41.950;24.372;2024-02-04T11:46:21;86952.31;;;7.18;69.53
11678;BME280;5895;41.950;24.372;2024-02-04T11:48:52;86950.59;;;7.05;70.82
11678;BME280;5895;41.950;24.372;2024-02-04T11:51:22;86950.41;;;7.00;70.81
11678;BME280;5895;41.950;24.372;2024-02-04T11:53:50;86946.47;;;6.91;70.53
11678;BME280;5895;41.950;24.372;2024-02-04T11:56:18;86941.94;;;6.79;71.25
11678;BME280;5895;41.950;24.372;2024-02-04T11:58:46;86952.25;;;6.66;70.61
11678;BME280;5895;41.950;24.372;2024-02-04T12:01:13;86958.03;;;6.55;71.84
11678;BME280;5895;41.950;24.372;2024-02-04T12:03:42;86955.66;;;6.47;71.83
11678;BME280;5895;41.950;24.372;2024-02-04T12:06:10;86949.50;;;6.48;72.21
11678;BME280;5895;41.950;24.372;2024-02-04T12:08:41;86934.84;;;6.42;71.72
11678;BME280;5895;41.950;24.372;2024-02-04T12:11:08;86947.94;;;6.33;71.99
11678;BME280;5895;41.950;24.372;2024-02-04T12:13:36;86938.41;;;6.27;72.29
11678;BME280;5895;41.950;24.372;2024-02-04T12:16:05;86943.19;;;6.24;72.92
11678;BME280;5895;41.950;24.372;2024-02-04T12:18:34;86936.44;;;6.23;72.71
11678;BME280;5895;41.950;24.372;2024-02-04T12:21:03;86942.00;;;6.20;73.00
11678;BME280;5895;41.950;24.372;2024-02-04T12:23:30;86939.63;;;6.18;72.72
11678;BME280;5895;41.950;24.372;2024-02-04T12:25:58;86937.63;;;6.20;72.50
11678;BME280;5895;41.950;24.372;2024-02-04T12:28:25;86934.47;;;6.18;72.49
11678;BME280;5895;41.950;24.372;2024-02-04T12:30:53;86927.72;;;6.17;72.24
11678;BME280;5895;41.950;24.372;2024-02-04T12:33:20;86927.72;;;6.17;72.04
11678;BME280;5895;41.950;24.372;2024-02-04T12:35:49;86934.28;;;6.13;72.70
11678;BME280;5895;41.950;24.372;2024-02-04T12:38:19;86933.28;;;6.07;72.58
11678;BME280;5895;41.950;24.372;2024-02-04T12:40:46;86924.56;;;6.02;72.39
11678;BME280;5895;41.950;24.372;2024-02-04T12:43:13;86925.75;;;5.99;72.80
11678;BME280;5895;41.950;24.372;2024-02-04T12:45:40;86923.38;;;5.98;72.69
11678;BME280;5895;41.950;24.372;2024-02-04T12:48:09;86936.41;;;5.90;72.83
11678;BME280;5895;41.950;24.372;2024-02-04T12:50:37;86920.56;;;5.86;72.94
11678;BME280;5895;41.950;24.372;2024-02-04T12:53:05;86932.03;;;5.83;72.40
11678;BME280;5895;41.950;24.372;2024-02-04T12:55:35;86922.56;;;5.91;73.00
11678;BME280;5895;41.950;24.372;2024-02-04T12:58:03;86921.38;;;6.00;72.59
11678;BME280;5895;41.950;24.372;2024-02-04T13:00:31;86940.03;;;6.02;72.56
11678;BME280;5895;41.950;24.372;2024-02-04T13:02:58;86929.72;;;6.02;72.65
11678;BME280;5895;41.950;24.372;2024-02-04T13:05:26;86931.69;;;6.00;72.19
11678;BME280;5895;41.950;24.372;2024-02-04T13:07:56;86925.16;;;5.97;72.48
11678;BME280;5895;41.950;24.372;2024-02-04T13:10:24;86922.97;;;5.94;72.73
11678;BME280;5895;41.950;24.372;2024-02-04T13:13:00;86915.41;;;5.86;73.07